Duette, FL

3:29 PM EDT on April 26, 2015 (GMT -0400)
Oakview Lakes on Peace River | | Change Station
CLOSE
Current Station
Personal Weather Station
Location: Fort Meade, FL
Elevation: 131 ft
Nearby Weather Stations

Elev 131 ft 27.74 °N, 81.79 °W | Updated 6 seconds ago

Mostly Cloudy
Mostly Cloudy
89.3 °F
Feels Like 101 °F
N
1.0
Wind Variable Wind from ESE
Gusts 15.0 mph

Today
High -- | Low -- °F
--% Chance of Precip.
Yesterday
High -- | Low -- °F
Precip. -- in
6:52 AM 7:58 PM
First Quarter, 58% visible
Pressure 29.80 in
Visibility 10.0 miles
Clouds Mostly Cloudy 3100 ft
Heat Index 101 °F
Dew Point 76 °F
Humidity 65%
Rainfall 0.00 in
Snow Depth Not available.
UV 7 out of 12
Pollen 6.80 out of 12
Air Quality Not available.
Flu Activity Local Activity
METAR KBOW 261847Z 26015G21KT 10SM BKN031 30/22 A2980

More Conditions Fewer Conditions

Pressure 29.80 in
Visibility 10.0 miles
Clouds Mostly Cloudy 3100 ft
Heat Index 101 °F
Dew Point 76 °F
Humidity 65%
Rainfall 0.00 in
Snow Depth Not available.
UV 7 out of 12
Pollen 6.80 out of 12
Air Quality Not available.
Flu Activity Local Activity
METAR KBOW 261847Z 26015G21KT 10SM BKN031 30/22 A2980

More Conditions Fewer Conditions

The full scope of the disaster following a powerful 7.8-magnitude earthquake in Nepal may not come into view for days, but global charities are already sending emergency aid. Click to see how you can help.

10-Day Weather Forecast

Almanac

Astronomy

Apr. 26, 2015 Rise Set
Actual Time
Civil Twilight
Nautical Twilight
Astronomical Twilight
Moon
Length of Visible Light
Length of Day
Tomorrow will be .
, % of the Moon is Illuminated

Today's Extremes

State Highs State Lows

Community

WunderPhotos

Upload Photos

1,817,097 photos uploaded!

WunderBlogs® & News

Nearby

Air Quality

  Air Quality AQ Index Pollutant
Not available.

Snow Depth

Station Depth Elevation

Earthquake Activity

City Distance Mag. Time & Date
Minimum magnitude displayed is 2.5.

Coastal Water Temperatures

Place Temperature

Stations

Nearby Weather Stations

Station Location Temp. Windchill Dew Point Humidity Wind Precip. Elev Updated Type